Time;durP1;ratioP1;P1;durP2;ratioP2;P2;SDS_P1;SDS_P2;PMS_P1;PMS_P2;Temp;Humidity;BMP_temperature;BMP_pressure;BME280_temperature;BME280_humidity;BME280_pressure;Samples;Min_cycle;Max_cycle;Signal;HPM_P1;HPM_P2
2021/05/04 00:01:54;;;;;;;6.78;3.13;;;;;;;21.37;38.43;99654.44;5029679;28;20040;-51
2021/05/04 00:04:20;;;;;;;6.80;3.30;;;;;;;21.09;38.79;99658.59;5029355;28;20086;-50
2021/05/04 00:06:45;;;;;;;5.38;3.00;;;;;;;20.87;39.93;99659.72;5029532;28;20056;-49
2021/05/04 00:09:10;;;;;;;3.97;3.13;;;;;;;20.64;40.81;99666.53;5029459;28;20025;-50
2021/05/04 00:11:36;;;;;;;5.07;3.33;;;;;;;20.74;40.41;99664.91;5029898;28;20158;-51
2021/05/04 00:14:01;;;;;;;3.80;3.35;;;;;;;20.48;41.20;99673.78;5033577;28;20029;-51
2021/05/04 00:16:27;;;;;;;4.97;3.50;;;;;;;20.27;41.47;99682.97;5033366;28;20049;-50
2021/05/04 00:18:53;;;;;;;7.32;3.40;;;;;;;20.16;41.83;99690.25;5033156;28;20040;-52
2021/05/04 00:21:18;;;;;;;5.93;3.58;;;;;;;20.18;41.99;99688.13;5032792;28;20024;-52
2021/05/04 00:23:44;;;;;;;5.18;3.40;;;;;;;20.07;42.23;99681.88;5032264;28;20033;-51
2021/05/04 00:26:10;;;;;;;6.30;3.55;;;;;;;19.93;42.58;99686.16;5032546;28;20037;-51
2021/05/04 00:28:36;;;;;;;5.97;3.50;;;;;;;20.05;42.43;99689.44;5033372;28;20030;-49
2021/05/04 00:31:01;;;;;;;6.75;3.50;;;;;;;19.33;43.92;99691.06;5032990;28;20029;-50
2021/05/04 00:33:27;;;;;;;7.30;3.50;;;;;;;19.70;43.00;99687.41;5033142;28;20105;-49
2021/05/04 00:35:52;;;;;;;9.88;3.63;;;;;;;19.85;42.49;99690.19;5032722;28;20527;-51
2021/05/04 00:38:18;;;;;;;5.85;3.60;;;;;;;19.75;42.71;99695.56;5033219;28;20035;-50
2021/05/04 00:40:43;;;;;;;4.43;3.22;;;;;;;19.53;43.11;99707.34;5033045;28;20404;-50
2021/05/04 00:43:09;;;;;;;6.13;3.47;;;;;;;18.89;44.01;99704.81;5030919;28;20052;-50
2021/05/04 00:45:34;;;;;;;5.15;3.80;;;;;;;18.83;44.19;99709.38;5028124;28;20029;-50
2021/05/04 00:48:00;;;;;;;4.50;3.40;;;;;;;18.71;44.50;99714.09;5023986;28;20087;-53
2021/05/04 00:50:25;;;;;;;6.20;3.50;;;;;;;18.46;44.80;99717.38;5032710;28;20386;-50
2021/05/04 00:52:51;;;;;;;4.50;3.33;;;;;;;18.54;44.28;99711.53;5032638;28;20036;-51
2021/05/04 00:55:17;;;;;;;8.30;3.60;;;;;;;18.60;44.36;99731.25;5032463;28;20021;-52
2021/05/04 00:57:43;;;;;;;5.15;3.40;;;;;;;18.69;43.58;99724.31;5031165;28;20105;-52
2021/05/04 01:00:11;;;;;;;5.97;3.42;;;;;;;18.32;43.98;99733.97;5032436;28;20131;-52
2021/05/04 01:02:36;;;;;;;4.00;3.20;;;;;;;18.49;43.24;99728.47;5032370;28;20083;-53
2021/05/04 01:05:02;;;;;;;4.07;3.28;;;;;;;18.40;43.08;99726.50;5014393;28;20025;-51
2021/05/04 01:07:28;;;;;;;4.88;3.22;;;;;;;18.94;42.17;99729.94;5030979;28;20106;-53
2021/05/04 01:09:54;;;;;;;4.32;3.40;;;;;;;18.96;41.44;99729.66;5032400;28;20033;-53
2021/05/04 01:12:20;;;;;;;5.90;3.28;;;;;;;18.73;42.34;99734.34;5032222;28;20104;-38
2021/05/04 01:14:45;;;;;;;4.97;3.50;;;;;;;18.42;42.01;99733.25;5031245;28;20492;-38
2021/05/04 01:17:10;;;;;;;5.82;4.03;;;;;;;18.65;42.21;99732.09;5032472;28;20026;-37
2021/05/04 01:19:36;;;;;;;4.40;3.35;;;;;;;18.16;42.16;99729.47;5031444;28;20037;-38
2021/05/04 01:22:01;;;;;;;5.75;3.58;;;;;;;18.04;42.72;99726.13;5032370;28;20361;-38
2021/05/04 01:24:27;;;;;;;4.78;3.60;;;;;;;18.24;42.54;99720.97;5031913;28;20033;-36
2021/05/04 01:26:52;;;;;;;10.73;3.38;;;;;;;18.46;41.75;99718.19;5032252;28;20034;-38
2021/05/04 01:29:18;;;;;;;5.30;3.30;;;;;;;18.03;42.46;99724.50;5032023;28;20076;-38
2021/05/04 01:31:43;;;;;;;6.03;3.47;;;;;;;18.10;42.34;99720.53;5032229;28;20040;-39
2021/05/04 01:34:09;;;;;;;8.95;3.40;;;;;;;18.32;41.77;99725.88;5032189;28;20045;-38
2021/05/04 01:36:34;;;;;;;9.82;3.30;;;;;;;18.64;41.36;99730.50;5032014;28;20048;-37
2021/05/04 01:39:02;;;;;;;4.72;3.65;;;;;;;18.67;40.88;99729.94;5032145;28;20021;-38
2021/05/04 01:41:28;;;;;;;4.95;3.20;;;;;;;18.72;40.87;99739.97;5030503;28;20462;-37
2021/05/04 01:43:53;;;;;;;7.10;3.40;;;;;;;18.47;41.39;99722.53;5031799;28;20037;-38
2021/05/04 01:46:19;;;;;;;5.80;3.40;;;;;;;18.60;40.56;99733.94;5031865;28;20492;-39
2021/05/04 01:48:44;;;;;;;5.20;3.50;;;;;;;18.66;40.60;99741.00;5031838;28;20022;-37
2021/05/04 01:51:11;;;;;;;4.93;3.10;;;;;;;18.44;40.90;99743.78;5031907;28;20438;-38
2021/05/04 01:53:36;;;;;;;5.43;3.33;;;;;;;18.73;40.31;99733.50;5031708;28;20044;-38
2021/05/04 01:56:02;;;;;;;4.05;3.42;;;;;;;18.70;41.23;99742.13;5031582;28;20466;-38
2021/05/04 01:58:27;;;;;;;6.57;3.45;;;;;;;18.99;40.08;99737.25;5031816;28;20025;-37
2021/05/04 02:00:53;;;;;;;4.72;3.35;;;;;;;19.14;39.57;99740.03;5030900;28;20021;-37
2021/05/04 02:03:20;;;;;;;4.50;3.40;;;;;;;18.99;40.32;99736.44;5031412;28;20033;-38
2021/05/04 02:05:46;;;;;;;5.18;3.55;;;;;;;18.89;40.31;99729.09;5031514;28;20083;-37
2021/05/04 02:08:11;;;;;;;4.82;3.53;;;;;;;19.27;39.38;99730.69;5031090;28;20025;-38
2021/05/04 02:10:36;;;;;;;7.68;3.38;;;;;;;19.10;40.29;99738.13;5031370;28;20033;-38
2021/05/04 02:13:02;;;;;;;4.45;3.42;;;;;;;18.80;41.05;99739.53;5031275;28;20438;-38
2021/05/04 02:15:27;;;;;;;4.85;3.40;;;;;;;18.63;40.65;99742.31;5031246;28;20385;-38
2021/05/04 02:17:53;;;;;;;4.75;3.33;;;;;;;18.52;41.06;99754.91;5031396;28;20025;-38
2021/05/04 02:20:18;;;;;;;5.45;3.28;;;;;;;18.39;41.68;99751.81;5031370;28;20368;-38
2021/05/04 02:22:44;;;;;;;6.90;3.80;;;;;;;18.16;41.59;99761.81;5030807;28;20030;-37
2021/05/04 02:25:10;;;;;;;4.43;3.45;;;;;;;18.31;41.61;99756.56;5031064;28;20033;-37
2021/05/04 02:27:35;;;;;;;5.55;3.75;;;;;;;18.30;42.25;99768.44;5030750;28;20405;-37
2021/05/04 02:30:02;;;;;;;4.78;3.72;;;;;;;18.69;40.72;99770.94;5030916;28;20030;-38
2021/05/04 02:32:32;;;;;;;4.30;3.45;;;;;;;18.73;40.73;99766.69;5030788;28;20040;-38
2021/05/04 02:34:57;;;;;;;4.15;3.60;;;;;;;18.66;41.06;99770.66;5030447;28;20026;-38
2021/05/04 02:37:23;;;;;;;5.05;3.60;;;;;;;18.55;41.64;99767.84;5030964;28;20036;-38
2021/05/04 02:39:48;;;;;;;7.70;3.67;;;;;;;18.78;40.58;99771.28;5030969;28;20025;-38
2021/05/04 02:42:13;;;;;;;4.30;3.17;;;;;;;18.26;41.30;99770.00;5031003;28;20430;-38
2021/05/04 02:44:39;;;;;;;4.82;3.55;;;;;;;18.20;41.75;99775.56;5030782;28;20460;-38
2021/05/04 02:47:04;;;;;;;4.47;3.40;;;;;;;18.22;41.75;99776.97;5030700;28;20033;-36
2021/05/04 02:49:30;;;;;;;5.72;3.50;;;;;;;18.00;41.55;99784.25;5030725;28;20037;-36
2021/05/04 02:51:55;;;;;;;7.13;3.58;;;;;;;18.16;41.43;99784.19;5030960;28;20036;-38
2021/05/04 02:54:21;;;;;;;5.28;3.78;;;;;;;18.35;40.88;99784.66;5030700;28;20091;-38
2021/05/04 02:56:46;;;;;;;5.03;3.45;;;;;;;18.23;41.62;99788.53;5031175;28;20381;-38
2021/05/04 02:59:11;;;;;;;4.63;3.38;;;;;;;18.38;40.86;99783.31;5030560;28;20148;-37
2021/05/04 03:01:37;;;;;;;5.90;3.30;;;;;;;18.36;40.81;99785.47;5030349;28;20034;-37
2021/05/04 03:04:03;;;;;;;7.95;3.70;;;;;;;17.88;41.49;99782.50;5030462;28;20033;-37
2021/05/04 03:06:28;;;;;;;5.22;3.45;;;;;;;18.16;41.64;99789.56;5030523;28;20032;-37
2021/05/04 03:08:54;;;;;;;4.32;3.50;;;;;;;18.20;40.33;99787.19;5030157;28;20044;-37
2021/05/04 03:11:20;;;;;;;5.10;3.35;;;;;;;18.16;41.58;99800.34;5030746;28;20033;-37
2021/05/04 03:13:45;;;;;;;4.03;3.38;;;;;;;18.28;40.58;99797.50;5029952;28;20049;-38
2021/05/04 03:16:11;;;;;;;3.97;3.08;;;;;;;18.26;40.52;99785.34;5030054;28;20029;-38
2021/05/04 03:18:36;;;;;;;5.15;3.55;;;;;;;18.08;41.15;99797.25;5030140;28;20041;-38
2021/05/04 03:21:02;;;;;;;4.32;3.50;;;;;;;18.16;40.63;99804.88;5030087;28;20405;-37
2021/05/04 03:23:27;;;;;;;8.45;3.53;;;;;;;18.43;40.57;99801.41;5030304;28;20128;-38
2021/05/04 03:25:53;;;;;;;5.72;3.40;;;;;;;18.59;40.45;99808.59;5030157;28;20029;-38
2021/05/04 03:28:19;;;;;;;7.07;3.22;;;;;;;18.77;40.07;99815.47;5030036;28;20032;-37
2021/05/04 03:30:44;;;;;;;4.72;3.33;;;;;;;18.92;39.62;99812.97;5029841;28;20129;-38
2021/05/04 03:33:10;;;;;;;8.80;3.28;;;;;;;19.12;39.34;99811.50;5029914;28;20067;-38
2021/05/04 03:35:35;;;;;;;6.43;3.67;;;;;;;19.21;39.33;99817.22;5029815;28;20037;-38
2021/05/04 03:38:01;;;;;;;6.32;3.60;;;;;;;18.41;40.74;99811.63;5030159;28;20022;-38
2021/05/04 03:40:27;;;;;;;4.75;3.60;;;;;;;18.23;41.19;99820.88;5030054;28;20063;-38
2021/05/04 03:42:52;;;;;;;3.72;3.30;;;;;;;18.46;40.27;99822.47;5030054;28;20059;-38
2021/05/04 03:45:18;;;;;;;5.57;3.25;;;;;;;18.52;39.84;99827.66;5030002;28;20021;-38
2021/05/04 03:47:44;;;;;;;6.75;3.30;;;;;;;18.05;41.21;99827.38;5030003;28;20022;-37
2021/05/04 03:50:13;;;;;;;6.35;3.33;;;;;;;18.35;40.41;99829.59;5030141;28;20032;-37
2021/05/04 03:52:38;;;;;;;5.28;3.40;;;;;;;18.29;40.32;99831.44;5029799;28;20425;-37
2021/05/04 03:55:04;;;;;;;6.35;3.60;;;;;;;18.39;41.03;99829.94;5029942;28;20033;-38
2021/05/04 03:57:30;;;;;;;5.80;3.63;;;;;;;18.65;40.38;99841.78;5029849;28;20128;-37
2021/05/04 03:59:56;;;;;;;7.35;4.65;;;;;;;18.85;40.53;99846.56;5029987;28;20044;-38
2021/05/04 04:02:22;;;;;;;4.55;3.47;;;;;;;18.94;39.30;99848.59;5029887;28;20029;-38
2021/05/04 04:04:47;;;;;;;5.63;3.53;;;;;;;18.63;39.76;99846.63;5029779;28;20085;-37
2021/05/04 04:07:13;;;;;;;5.03;3.80;;;;;;;18.64;39.35;99848.22;5029656;28;20075;-38
2021/05/04 04:09:38;;;;;;;4.05;3.40;;;;;;;18.56;40.26;99853.03;5029919;28;20026;-38
2021/05/04 04:12:04;;;;;;;8.52;3.47;;;;;;;18.62;39.37;99859.28;5029516;28;20387;-37
2021/05/04 04:14:29;;;;;;;6.90;3.47;;;;;;;18.67;39.83;99866.59;5029897;28;20041;-38
2021/05/04 04:16:55;;;;;;;4.22;3.20;;;;;;;18.48;40.46;99866.13;5029694;28;20021;-38
2021/05/04 04:19:20;;;;;;;6.03;3.22;;;;;;;18.87;39.42;99866.84;5029508;28;20382;-38
2021/05/04 04:21:48;;;;;;;4.32;3.10;;;;;;;19.03;39.41;99869.69;5028267;28;20017;-38
2021/05/04 04:24:14;;;;;;;4.00;3.30;;;;;;;19.47;38.61;99867.59;5029766;28;20649;-38
2021/05/04 04:26:39;;;;;;;5.00;3.40;;;;;;;19.62;38.29;99864.19;5029661;28;20022;-39
2021/05/04 04:29:05;;;;;;;7.35;3.58;;;;;;;19.23;38.63;99864.47;5029762;28;20444;-38
2021/05/04 04:31:30;;;;;;;7.75;3.83;;;;;;;18.93;39.31;99873.09;5029762;28;20036;-39
2021/05/04 04:33:55;;;;;;;5.13;3.45;;;;;;;18.78;39.56;99871.03;5029733;28;20068;-38
2021/05/04 04:36:21;;;;;;;4.82;3.28;;;;;;;18.84;40.02;99874.63;5029927;28;20075;-38
2021/05/04 04:38:46;;;;;;;4.38;3.78;;;;;;;18.80;39.75;99877.00;5030220;28;20021;-38
2021/05/04 04:41:12;;;;;;;9.05;4.00;;;;;;;19.17;39.67;99880.84;5030109;28;20152;-37
2021/05/04 04:43:37;;;;;;;4.38;3.45;;;;;;;19.60;38.80;99871.72;5030045;28;20029;-37
2021/05/04 04:46:03;;;;;;;4.82;3.58;;;;;;;19.58;38.78;99878.47;5029535;28;20439;-38
2021/05/04 04:48:28;;;;;;;6.57;4.43;;;;;;;19.81;38.92;99875.41;5029467;28;20393;-38
2021/05/04 04:50:54;;;;;;;4.63;3.63;;;;;;;19.68;38.45;99873.13;5029835;28;20087;-38
2021/05/04 04:53:19;;;;;;;5.95;3.70;;;;;;;19.75;38.47;99876.44;5029785;28;20034;-39
2021/05/04 04:55:45;;;;;;;5.35;3.92;;;;;;;19.41;39.09;99875.91;5029335;28;20018;-38
2021/05/04 04:58:10;;;;;;;7.35;4.07;;;;;;;19.75;39.68;99878.34;5030969;28;20037;-39
2021/05/04 05:00:36;;;;;;;5.55;3.70;;;;;;;19.37;39.34;99862.13;5033020;28;20023;-38
2021/05/04 05:03:01;;;;;;;6.25;3.60;;;;;;;19.52;39.38;99869.53;5032976;28;20056;-38
2021/05/04 05:05:26;;;;;;;6.28;3.60;;;;;;;19.43;39.06;99871.88;5032939;28;20046;-37
2021/05/04 05:07:52;;;;;;;6.25;3.53;;;;;;;18.98;39.98;99865.03;5032780;28;20139;-38
2021/05/04 05:10:17;;;;;;;9.55;5.60;;;;;;;18.96;39.54;99869.88;5032938;28;20025;-38
2021/05/04 05:12:43;;;;;;;16.52;10.63;;;;;;;19.25;39.70;99875.00;5032615;28;20413;-39
2021/05/04 05:15:09;;;;;;;10.75;6.25;;;;;;;19.39;39.41;99886.16;5032978;28;20428;-38
2021/05/04 05:17:34;;;;;;;8.57;5.95;;;;;;;19.24;39.15;99887.66;5032942;28;20044;-37
2021/05/04 05:20:01;;;;;;;12.20;8.55;;;;;;;19.26;39.43;99882.00;5032594;28;20068;-38
2021/05/04 05:22:27;;;;;;;5.45;3.78;;;;;;;18.82;39.90;99887.53;5032504;28;20033;-38
2021/05/04 05:24:54;;;;;;;6.65;3.33;;;;;;;18.75;39.68;99885.00;5032105;28;20025;-39
2021/05/04 05:27:19;;;;;;;5.93;3.15;;;;;;;18.74;40.00;99884.19;5031349;28;20029;-38
2021/05/04 05:29:45;;;;;;;4.45;3.28;;;;;;;19.06;39.70;99899.66;5031104;28;20068;-38
2021/05/04 05:32:10;;;;;;;6.47;3.35;;;;;;;19.48;38.38;99900.81;5032751;28;20179;-38
2021/05/04 05:34:36;;;;;;;6.88;3.25;;;;;;;19.40;38.58;99903.97;5032378;28;20029;-38
2021/05/04 05:37:01;;;;;;;4.93;3.20;;;;;;;19.84;37.52;99901.88;5032397;28;20025;-37
2021/05/04 05:39:27;;;;;;;7.10;3.50;;;;;;;20.36;37.19;99896.75;5032285;28;20026;-37
2021/05/04 05:41:52;;;;;;;10.65;3.38;;;;;;;20.38;36.68;99903.50;5031730;28;20029;-37
2021/05/04 05:44:18;;;;;;;6.55;3.20;;;;;;;20.21;36.48;99905.59;5032181;28;20029;-37
2021/05/04 05:46:43;;;;;;;8.98;3.25;;;;;;;20.34;36.21;99905.09;5032140;28;20040;-37
2021/05/04 05:49:10;;;;;;;5.03;2.92;;;;;;;21.26;35.49;99910.72;5032316;28;20029;-38
2021/05/04 05:51:36;;;;;;;7.15;3.10;;;;;;;21.15;34.78;99913.72;5032389;28;20124;-38
2021/05/04 05:54:01;;;;;;;5.20;3.60;;;;;;;21.80;33.32;99914.81;5032430;28;20021;-39
2021/05/04 05:56:27;;;;;;;6.43;3.50;;;;;;;21.96;33.30;99918.28;5032284;28;20032;-37
2021/05/04 05:58:52;;;;;;;5.60;3.03;;;;;;;22.23;32.57;99917.13;5031769;28;20405;-38
2021/05/04 06:01:18;;;;;;;4.32;3.00;;;;;;;22.15;33.18;99923.13;5031683;28;20064;-38
2021/05/04 06:03:43;;;;;;;6.03;3.67;;;;;;;22.31;33.16;99921.19;5031491;28;20064;-38
2021/05/04 06:06:09;;;;;;;6.72;3.22;;;;;;;21.64;33.90;99907.78;5030944;28;20482;-39
2021/05/04 06:08:34;;;;;;;5.18;2.80;;;;;;;21.28;34.20;99915.88;5030778;28;20029;-38
2021/05/04 06:11:00;;;;;;;6.47;2.90;;;;;;;20.91;34.91;99902.59;5030267;28;20033;-38
2021/05/04 06:13:25;;;;;;;4.43;3.00;;;;;;;20.96;35.17;99922.34;5030854;28;20045;-38
2021/05/04 06:15:51;;;;;;;5.55;2.90;;;;;;;21.25;34.06;99894.78;5031331;28;20100;-38
2021/05/04 06:18:16;;;;;;;4.13;2.95;;;;;;;21.50;33.46;99912.94;5031066;28;20098;-38
2021/05/04 06:20:41;;;;;;;4.43;3.03;;;;;;;21.75;33.00;99914.00;5030622;28;20025;-37
2021/05/04 06:23:07;;;;;;;11.57;8.00;;;;;;;22.01;33.34;99915.56;5030769;28;20032;-38
2021/05/04 06:25:33;;;;;;;5.90;3.70;;;;;;;21.68;33.64;99919.69;5030739;28;20021;-38
2021/05/04 06:28:02;;;;;;;4.65;3.00;;;;;;;21.73;32.86;99916.97;5029837;28;20036;-37
2021/05/04 06:30:32;;;;;;;5.97;2.80;;;;;;;22.00;32.55;99915.84;5030475;28;20021;-38
2021/05/04 06:33:02;;;;;;;4.03;3.00;;;;;;;22.03;32.42;99909.88;5031070;28;20040;-38
2021/05/04 06:35:27;;;;;;;;;;;;;;;22.56;31.65;99906.69;5029067;28;20025;-37
2021/05/04 06:37:53;;;;;;;4.43;2.80;;;;;;;22.31;32.22;99910.34;5030681;28;19909;-38
2021/05/04 06:40:18;;;;;;;4.00;2.70;;;;;;;22.58;32.22;99899.94;5030392;28;20025;-38
2021/05/04 06:42:44;;;;;;;4.97;3.10;;;;;;;22.95;31.85;99903.22;5030569;28;20032;-38
2021/05/04 06:45:10;;;;;;;4.55;2.90;;;;;;;23.71;31.85;99893.66;5030620;28;20034;-38
2021/05/04 06:47:35;;;;;;;3.65;2.90;;;;;;;24.14;31.06;99893.75;5030643;28;20167;-38
2021/05/04 06:50:01;;;;;;;6.75;3.40;;;;;;;24.11;34.76;99896.25;5030277;28;20425;-38
2021/05/04 06:52:26;;;;;;;6.40;3.30;;;;;;;23.93;30.51;99890.47;5030691;28;20021;-36
2021/05/04 06:54:52;;;;;;;6.65;3.20;;;;;;;24.28;30.57;99879.47;5030531;28;20441;-37
2021/05/04 06:57:18;;;;;;;6.10;3.70;;;;;;;25.50;29.57;99881.47;5030385;28;20505;-37
2021/05/04 06:59:44;;;;;;;4.05;2.78;;;;;;;25.29;28.83;99872.88;5030489;28;20025;-38
2021/05/04 07:02:09;;;;;;;5.30;2.58;;;;;;;25.93;27.50;99870.34;5026482;28;20036;-38
2021/05/04 07:04:35;;;;;;;3.72;2.40;;;;;;;26.12;27.61;99865.59;5024159;28;20087;-38
2021/05/04 07:07:00;;;;;;;4.45;2.63;;;;;;;26.54;27.03;99865.53;5030161;28;20091;-38
2021/05/04 07:09:26;;;;;;;5.18;2.70;;;;;;;26.93;26.19;99861.38;5030147;28;20056;-37
2021/05/04 07:11:52;;;;;;;6.18;2.80;;;;;;;27.94;25.33;99858.28;5029845;28;20049;-37
2021/05/04 07:14:18;;;;;;;4.13;2.72;;;;;;;28.43;24.14;99856.28;5029936;28;20418;-37
2021/05/04 07:16:44;;;;;;;4.18;2.40;;;;;;;28.58;23.91;99849.59;5030021;28;20093;-37
2021/05/04 07:19:10;;;;;;;2.92;2.20;;;;;;;29.13;23.02;99845.34;5030103;28;20136;-38
2021/05/04 07:21:35;;;;;;;7.28;2.53;;;;;;;28.95;23.23;99848.09;5029269;28;20028;-51
2021/05/04 07:24:00;;;;;;;5.65;3.38;;;;;;;29.43;22.73;99846.25;5029541;28;20442;-51
2021/05/04 07:26:27;;;;;;;6.72;3.45;;;;;;;29.60;29.26;99851.66;5024585;28;20040;-48
2021/05/04 07:28:52;;;;;;;7.93;3.22;;;;;;;30.18;29.62;99854.81;5025234;28;20035;-49
2021/05/04 07:31:17;;;;;;;4.20;3.10;;;;;;;30.59;26.04;99844.19;5026398;28;20021;-50
2021/05/04 07:33:43;;;;;;;5.93;2.63;;;;;;;30.84;22.32;99841.56;5028508;28;20036;-52
2021/05/04 07:36:09;;;;;;;4.10;2.75;;;;;;;30.46;22.20;99832.34;5029557;28;20056;-51
2021/05/04 07:38:34;;;;;;;5.10;2.58;;;;;;;31.02;21.06;99836.75;5029757;28;20022;-52
2021/05/04 07:41:00;;;;;;;3.10;2.60;;;;;;;31.26;20.49;99838.75;5029240;28;20468;-38
2021/05/04 07:43:25;;;;;;;5.47;2.75;;;;;;;31.08;21.03;99833.44;5008476;28;20021;-38
2021/05/04 07:45:51;;;;;;;6.18;2.42;;;;;;;31.39;20.63;99834.88;5010022;28;20026;-38
2021/05/04 07:48:17;;;;;;;3.78;2.20;;;;;;;31.76;21.49;99832.22;5020853;28;20024;-39
2021/05/04 07:50:43;;;;;;;4.18;2.30;;;;;;;31.60;20.41;99831.28;5019913;28;20509;-38
2021/05/04 07:53:08;;;;;;;4.10;2.40;;;;;;;31.69;20.56;99832.75;5009592;28;20026;-39
2021/05/04 07:55:34;;;;;;;5.13;2.45;;;;;;;31.04;21.55;99829.78;5026880;28;20036;-39
2021/05/04 07:57:59;;;;;;;5.63;3.00;;;;;;;30.62;21.44;99838.06;5029604;28;20137;-39
2021/05/04 08:00:25;;;;;;;48.33;39.17;;;;;;;30.54;21.01;99831.50;5029546;28;20646;-39
2021/05/04 08:02:50;;;;;;;26.33;18.02;;;;;;;29.28;22.58;99830.34;5029792;28;20057;-39
2021/05/04 08:05:16;;;;;;;4.85;3.25;;;;;;;28.35;23.74;99825.06;5029409;28;20025;-39
2021/05/04 08:07:41;;;;;;;5.28;2.88;;;;;;;27.53;24.20;99832.03;5029283;28;20025;-39
2021/05/04 08:10:07;;;;;;;6.78;3.40;;;;;;;27.61;24.25;99831.28;5029483;28;20036;-39
2021/05/04 08:12:33;;;;;;;5.68;4.30;;;;;;;28.12;24.42;99832.59;5028833;28;20045;-39
2021/05/04 08:14:59;;;;;;;7.40;3.80;;;;;;;29.20;24.61;99823.75;5028582;28;20029;-39
2021/05/04 08:17:28;;;;;;;4.75;3.30;;;;;;;29.51;23.90;99819.94;5037844;28;20076;-39
2021/05/04 08:19:53;;;;;;;44.80;31.92;;;;;;;30.36;23.82;99813.53;5028713;28;20026;-39
2021/05/04 08:22:19;;;;;;;10.88;6.15;;;;;;;30.48;22.06;99819.13;5029174;28;20029;-39
2021/05/04 08:24:44;;;;;;;13.13;7.40;;;;;;;31.32;22.40;99818.97;5038861;28;20029;-39
2021/05/04 08:27:10;;;;;;;5.43;3.45;;;;;;;30.21;22.05;99818.47;5035952;28;20380;-39
2021/05/04 08:29:35;;;;;;;10.68;5.22;;;;;;;30.92;21.70;99818.72;5033626;28;20030;-39
2021/05/04 08:32:04;;;;;;;6.93;3.35;;;;;;;30.01;22.70;99827.47;5028908;28;20029;-39
2021/05/04 08:34:32;;;;;;;5.05;3.10;;;;;;;30.92;22.54;99818.72;5040618;28;20167;-39
2021/05/04 08:36:58;;;;;;;7.80;2.90;;;;;;;31.45;21.54;99828.00;5040403;28;20103;-39
2021/05/04 08:39:23;;;;;;;6.55;3.42;;;;;;;30.48;21.77;99832.00;5048201;28;20477;-39
2021/05/04 08:41:49;;;;;;;6.03;3.60;;;;;;;29.58;23.77;99831.22;5036314;28;20488;-39
2021/05/04 08:44:18;;;;;;;8.40;3.42;;;;;;;30.36;23.40;99827.28;5045897;28;20020;-39
2021/05/04 08:46:45;;;;;;;9.52;3.58;;;;;;;30.79;21.76;99831.59;5040097;28;20131;-39
2021/05/04 08:49:13;;;;;;;7.80;3.20;;;;;;;30.51;22.49;99829.41;5046110;28;20032;-39
2021/05/04 08:51:38;;;;;;;10.45;8.35;;;;;;;29.77;22.79;99831.63;5035065;28;20026;-39
2021/05/04 08:54:04;;;;;;;5.03;3.00;;;;;;;30.21;22.60;99831.38;5027475;28;20030;-39
2021/05/04 08:56:30;;;;;;;7.25;3.00;;;;;;;29.70;22.71;99833.25;5012908;28;20116;-38
2021/05/04 08:58:55;;;;;;;7.72;3.65;;;;;;;30.38;22.20;99825.78;5035208;28;20148;-38
2021/05/04 09:01:21;;;;;;;5.45;3.45;;;;;;;29.36;22.70;99824.03;5037524;28;20123;-39
2021/05/04 09:03:52;;;;;;;6.65;3.63;;;;;;;29.33;24.09;99814.53;5050984;28;20029;-38
2021/05/04 09:06:52;;;;;;;5.18;3.55;;;;;;;29.66;23.39;99807.63;5046229;28;20045;-39
2021/05/04 09:09:32;;;;;;;4.93;3.00;;;;;;;30.21;23.18;99802.00;5009818;28;20045;-39
2021/05/04 09:12:12;;;;;;;7.43;2.95;;;;;;;30.08;22.83;99803.03;5052016;28;20077;-39
2021/05/04 09:14:54;;;;;;;4.20;3.08;;;;;;;30.48;22.63;99807.31;5043490;28;20449;-38
2021/05/04 09:17:25;;;;;;;6.15;3.10;;;;;;;30.21;21.58;99798.44;5032175;28;20025;-38
2021/05/04 09:20:21;;;;;;;6.00;2.55;;;;;;;30.14;22.08;99799.00;5037729;28;20051;-39
2021/05/04 09:22:47;;;;;;;14.02;10.18;;;;;;;29.10;23.23;99783.78;5040437;28;20195;-39
2021/05/04 09:25:27;;;;;;;8.50;3.20;;;;;;;29.44;23.60;99782.88;5032211;28;20025;-38
2021/05/04 09:28:02;;;;;;;4.60;2.90;;;;;;;28.72;23.16;99770.81;5048833;28;20044;-40
2021/05/04 09:30:28;;;;;;;3.35;2.70;;;;;;;27.83;24.01;99775.72;5039629;28;20056;-39
2021/05/04 09:32:54;;;;;;;5.50;2.90;;;;;;;28.48;23.84;99760.34;5040959;28;20381;-39
2021/05/04 09:35:28;;;;;;;5.82;2.50;;;;;;;28.58;24.05;99757.31;5046434;28;20025;-38
2021/05/04 09:37:54;;;;;;;5.30;2.60;;;;;;;26.50;26.43;99744.47;5032719;28;20068;-39
2021/05/04 09:40:26;;;;;;;3.75;2.75;;;;;;;27.05;26.33;99754.31;5014124;28;20033;-39
2021/05/04 09:43:14;;;;;;;5.57;2.70;;;;;;;26.85;26.25;99750.22;5042666;28;20444;-38
2021/05/04 09:45:49;;;;;;;6.35;3.45;;;;;;;26.24;26.87;99757.94;5033659;28;20544;-39
2021/05/04 09:48:16;;;;;;;6.47;3.88;;;;;;;26.07;27.34;99758.56;5043783;28;20096;-38
2021/05/04 09:50:49;;;;;;;7.32;3.10;;;;;;;26.37;26.90;99754.34;5042500;28;20044;-40
2021/05/04 09:53:17;;;;;;;7.22;3.00;;;;;;;27.07;26.21;99768.47;5045317;28;20039;-38
2021/05/04 09:55:56;;;;;;;4.43;3.00;;;;;;;26.12;27.31;99759.25;5047077;28;20058;-38
2021/05/04 09:58:51;;;;;;;4.28;3.00;;;;;;;27.56;26.93;99757.63;5038020;28;20461;-39
2021/05/04 10:01:18;;;;;;;4.78;3.00;;;;;;;28.07;25.51;99758.91;5028057;28;20465;-39
2021/05/04 10:03:44;;;;;;;5.72;3.00;;;;;;;28.21;25.16;99756.81;5041959;28;20034;-39
2021/05/04 10:06:11;;;;;;;5.65;2.80;;;;;;;27.20;26.71;99755.84;5045095;28;20048;-38
2021/05/04 10:08:37;;;;;;;3.92;2.70;;;;;;;27.04;26.56;99752.72;5032193;28;20044;-39
2021/05/04 10:11:13;;;;;;;6.05;3.03;;;;;;;27.60;26.06;99734.00;5030385;28;20497;-39
2021/05/04 10:13:40;;;;;;;5.43;2.78;;;;;;;27.20;26.43;99737.53;5045267;28;20057;-39
2021/05/04 10:16:06;;;;;;;4.68;2.95;;;;;;;26.18;27.65;99732.69;5030232;28;20420;-39
2021/05/04 10:18:32;;;;;;;5.53;2.80;;;;;;;26.07;28.23;99723.13;5039163;28;20025;-38
2021/05/04 10:20:59;;;;;;;6.03;2.95;;;;;;;26.40;28.10;99723.69;5039042;28;20095;-38
2021/05/04 10:23:25;;;;;;;5.20;2.72;;;;;;;27.39;26.72;99720.91;5046080;28;20116;-39
2021/05/04 10:25:57;;;;;;;5.40;3.10;;;;;;;26.80;27.74;99723.84;5051192;28;20094;-38
2021/05/04 10:28:28;;;;;;;5.88;2.72;;;;;;;26.81;26.80;99719.22;5043718;28;20025;-39
2021/05/04 10:31:01;;;;;;;6.90;2.65;;;;;;;27.11;27.12;99723.03;5023413;28;20036;-39
2021/05/04 10:33:29;;;;;;;66.03;46.70;;;;;;;26.83;26.82;99723.22;5034060;28;20125;-39
2021/05/04 10:35:55;;;;;;;4.95;3.13;;;;;;;26.82;27.65;99707.94;5041634;28;20060;-39
2021/05/04 10:38:20;;;;;;;6.25;2.80;;;;;;;26.07;28.09;99704.84;5036573;28;20493;-40
2021/05/04 10:41:02;;;;;;;6.00;3.20;;;;;;;26.24;28.23;99700.66;5008850;28;20026;-38
2021/05/04 10:43:27;;;;;;;6.38;2.90;;;;;;;26.24;28.08;99709.63;5040247;28;20021;-38
2021/05/04 10:45:54;;;;;;;5.10;2.90;;;;;;;26.02;28.82;99696.78;5010638;28;20025;-38
2021/05/04 10:48:38;;;;;;;4.70;2.70;;;;;;;25.99;28.66;99682.94;5036384;28;20453;-38
2021/05/04 10:51:13;;;;;;;6.53;2.90;;;;;;;26.09;28.51;99699.09;5043433;28;20041;-39
2021/05/04 10:53:55;;;;;;;5.15;2.70;;;;;;;25.49;28.91;99675.56;5028918;28;20620;-38
2021/05/04 10:56:40;;;;;;;4.05;2.90;;;;;;;26.07;27.67;99690.41;5029663;28;20185;-39
2021/05/04 10:59:10;;;;;;;4.90;2.50;;;;;;;25.94;28.34;99686.59;5029322;28;20049;-38
2021/05/04 11:01:36;;;;;;;4.45;2.50;;;;;;;26.00;29.23;99698.19;5031409;28;20163;-39
2021/05/04 11:04:02;;;;;;;4.78;2.63;;;;;;;25.99;29.73;99693.84;5031875;28;20029;-39
2021/05/04 11:06:29;;;;;;;6.13;2.60;;;;;;;25.91;29.20;99677.13;5029106;28;20029;-39
2021/05/04 11:08:55;;;;;;;6.70;2.80;;;;;;;25.64;30.32;99674.44;5029888;28;20512;-38
2021/05/04 11:11:24;;;;;;;3.88;2.70;;;;;;;25.63;30.67;99673.63;5023969;28;20061;-39
2021/05/04 11:14:02;;;;;;;4.38;2.70;;;;;;;26.08;29.81;99679.19;5024418;28;20471;-40
2021/05/04 11:16:32;;;;;;;4.85;2.75;;;;;;;26.26;28.79;99676.59;5010213;28;20121;-38
2021/05/04 11:19:08;;;;;;;5.43;2.92;;;;;;;26.52;28.98;99671.31;5010330;28;20034;-39
2021/05/04 11:21:47;;;;;;;5.00;2.70;;;;;;;27.36;28.10;99677.03;5043395;28;20033;-39
2021/05/04 11:24:17;;;;;;;3.70;2.78;;;;;;;26.06;28.62;99691.50;5035474;28;20104;-39
2021/05/04 11:26:43;;;;;;;4.20;2.70;;;;;;;25.96;28.91;99664.50;5036216;28;20052;-39
2021/05/04 11:29:09;;;;;;;3.83;2.83;;;;;;;25.76;28.04;99655.66;5042843;28;20049;-39
2021/05/04 11:31:38;;;;;;;3.38;2.47;;;;;;;25.49;29.37;99640.16;5033532;28;20076;-41
2021/05/04 11:34:32;;;;;;;6.32;2.65;;;;;;;26.22;28.36;99656.53;5036401;28;20025;-40